createdAt,value
2022-11-08T00:01:38.823Z,20.00
2022-11-08T00:04:21.461Z,20.07
2022-11-08T00:07:07.353Z,20.33
2022-11-08T00:09:53.298Z,26.00
2022-11-08T00:12:39.458Z,19.63
2022-11-08T00:15:11.664Z,20.63
2022-11-08T00:17:38.886Z,22.10
2022-11-08T00:20:07.257Z,19.37
2022-11-08T00:22:37.175Z,23.63
2022-11-08T00:25:11.166Z,19.93
2022-11-08T00:27:38.116Z,21.17
2022-11-08T00:30:05.604Z,21.27
2022-11-08T00:32:34.063Z,18.73
2022-11-08T00:35:01.521Z,21.23
2022-11-08T00:37:28.661Z,24.27
2022-11-08T00:39:55.612Z,18.03
2022-11-08T00:42:22.748Z,21.00
2022-11-08T00:44:49.648Z,22.50
2022-11-08T00:47:16.955Z,22.00
2022-11-08T00:49:43.921Z,21.47
2022-11-08T00:52:10.988Z,19.07
2022-11-08T00:54:37.943Z,20.17
2022-11-08T00:57:04.887Z,21.10
2022-11-08T00:59:31.878Z,21.50
2022-11-08T01:01:59.296Z,23.33
2022-11-08T01:04:26.512Z,22.57
2022-11-08T01:06:53.489Z,20.37
2022-11-08T01:09:20.480Z,22.10
2022-11-08T01:11:50.358Z,22.63
2022-11-08T01:14:17.684Z,22.77
2022-11-08T01:16:49.740Z,26.30
2022-11-08T01:19:17.964Z,23.73
2022-11-08T01:21:47.341Z,21.30
2022-11-08T01:24:14.316Z,21.73
2022-11-08T01:26:41.260Z,21.73
2022-11-08T01:29:10.415Z,22.53
2022-11-08T01:31:37.877Z,19.90
2022-11-08T01:34:05.913Z,21.13
2022-11-08T01:36:34.821Z,22.83
2022-11-08T01:39:02.981Z,19.43
2022-11-08T01:41:31.191Z,21.23
2022-11-08T01:44:00.590Z,22.57
2022-11-08T01:46:46.489Z,19.03
2022-11-08T01:49:33.146Z,23.77
2022-11-08T01:52:12.267Z,25.57
2022-11-08T01:54:54.202Z,23.57
2022-11-08T01:57:35.729Z,21.00
2022-11-08T02:00:08.539Z,22.97
2022-11-08T02:02:37.001Z,19.30
2022-11-08T02:05:06.913Z,20.93
2022-11-08T02:07:34.595Z,21.00
2022-11-08T02:10:03.066Z,23.20
2022-11-08T02:12:30.649Z,21.93
2022-11-08T02:14:57.560Z,20.40
2022-11-08T02:17:33.779Z,28.93
2022-11-08T02:20:00.893Z,19.80
2022-11-08T02:22:38.704Z,25.17
2022-11-08T02:25:06.847Z,20.07
2022-11-08T02:27:33.866Z,24.93
2022-11-08T02:30:00.922Z,20.07
2022-11-08T02:32:41.663Z,26.17
2022-11-08T02:35:18.823Z,21.27
2022-11-08T02:37:47.160Z,25.87
2022-11-08T02:40:14.326Z,24.10
2022-11-08T02:42:42.002Z,24.43
2022-11-08T02:45:10.418Z,24.77
2022-11-08T02:47:37.589Z,21.27
2022-11-08T02:50:07.759Z,24.07
2022-11-08T02:52:35.208Z,23.93
2022-11-08T02:55:02.336Z,24.00
2022-11-08T02:57:29.567Z,23.60
2022-11-08T02:59:56.684Z,22.80
2022-11-08T03:02:23.726Z,21.90
2022-11-08T03:04:53.550Z,21.73
2022-11-08T03:07:24.716Z,25.37
2022-11-08T03:09:52.275Z,21.00
2022-11-08T03:12:20.415Z,24.53
2022-11-08T03:14:49.915Z,20.80
2022-11-08T03:17:16.945Z,21.23
2022-11-08T03:19:45.553Z,23.00
2022-11-08T03:22:12.667Z,22.70
2022-11-08T03:24:39.827Z,23.17
2022-11-08T03:27:06.909Z,23.30
2022-11-08T03:29:33.945Z,21.90
2022-11-08T03:32:00.964Z,21.13
2022-11-08T03:34:27.944Z,25.80
2022-11-08T03:36:54.972Z,23.43
2022-11-08T03:39:21.913Z,22.63
2022-11-08T03:41:48.955Z,26.53
2022-11-08T03:44:16.050Z,22.70
2022-11-08T03:46:42.945Z,24.47
2022-11-08T03:49:10.143Z,23.77
2022-11-08T03:51:37.293Z,29.80
2022-11-08T03:54:08.186Z,22.53
2022-11-08T03:56:35.386Z,30.07
2022-11-08T03:59:02.739Z,24.63
2022-11-08T04:01:30.033Z,25.17
2022-11-08T04:03:57.348Z,24.90
2022-11-08T04:06:24.805Z,22.40
2022-11-08T04:08:51.954Z,26.87
2022-11-08T04:11:41.842Z,27.23
2022-11-08T04:14:28.431Z,27.57
2022-11-08T04:16:56.827Z,24.53
2022-11-08T04:19:43.285Z,23.73
2022-11-08T04:22:11.900Z,20.17
2022-11-08T04:24:39.146Z,22.33
2022-11-08T04:27:06.114Z,24.07
2022-11-08T04:29:33.468Z,24.23
2022-11-08T04:32:00.583Z,20.67
2022-11-08T04:34:27.904Z,22.27
2022-11-08T04:36:57.985Z,24.37
2022-11-08T04:39:25.072Z,24.37
2022-11-08T04:41:53.762Z,23.70
2022-11-08T04:44:23.502Z,24.50
2022-11-08T04:46:50.593Z,22.93
2022-11-08T04:49:17.490Z,24.67
2022-11-08T04:51:44.455Z,23.63
2022-11-08T04:54:11.947Z,23.37
2022-11-08T04:56:38.929Z,23.77
2022-11-08T04:59:11.704Z,25.67
2022-11-08T05:01:39.420Z,23.30
2022-11-08T05:04:06.625Z,23.87
2022-11-08T05:06:33.810Z,21.27
2022-11-08T05:09:01.191Z,23.67
2022-11-08T05:11:30.045Z,21.73
2022-11-08T05:13:57.803Z,23.40
2022-11-08T05:16:30.625Z,25.20
2022-11-08T05:18:58.562Z,23.70
2022-11-08T05:21:44.401Z,24.37
2022-11-08T05:24:13.696Z,27.67
2022-11-08T05:26:42.648Z,22.60
2022-11-08T05:29:09.736Z,25.20
2022-11-08T05:31:36.980Z,23.03
2022-11-08T05:34:07.718Z,23.80
2022-11-08T05:36:34.960Z,25.30
2022-11-08T05:39:02.030Z,24.83
2022-11-08T05:41:29.809Z,24.03
2022-11-08T05:43:56.885Z,23.53
2022-11-08T05:46:23.969Z,22.97
2022-11-08T05:48:53.554Z,25.03
2022-11-08T05:51:21.047Z,35.57
2022-11-08T05:56:35.621Z,24.57
2022-11-08T05:59:02.665Z,24.23
2022-11-08T06:01:29.738Z,25.87
2022-11-08T06:03:56.750Z,26.33
2022-11-08T06:06:23.756Z,25.90
2022-11-08T06:08:52.092Z,22.53
2022-11-08T06:11:23.626Z,22.87
2022-11-08T06:13:52.106Z,26.83
2022-11-08T06:16:20.181Z,25.40
2022-11-08T06:18:47.626Z,22.53
2022-11-08T06:21:16.717Z,24.07
2022-11-08T06:23:43.903Z,26.63
2022-11-08T06:26:11.239Z,24.20
2022-11-08T06:28:38.613Z,22.60
2022-11-08T06:31:05.873Z,25.57
2022-11-08T06:33:32.946Z,23.53
2022-11-08T06:36:00.215Z,24.90
2022-11-08T06:38:27.060Z,23.43
2022-11-08T06:40:54.028Z,23.03
2022-11-08T06:43:21.258Z,22.53
2022-11-08T06:45:48.322Z,22.20
2022-11-08T06:48:15.404Z,24.07
2022-11-08T06:50:43.073Z,21.27
2022-11-08T06:53:13.202Z,24.20
2022-11-08T06:55:40.554Z,22.60
2022-11-08T06:58:07.755Z,21.30
2022-11-08T07:00:34.602Z,21.53
2022-11-08T07:03:04.555Z,20.67
2022-11-08T07:05:33.456Z,18.23
2022-11-08T07:08:01.135Z,21.37
2022-11-08T07:10:31.345Z,19.93
2022-11-08T07:13:11.532Z,24.30
2022-11-08T07:15:38.977Z,21.30
2022-11-08T07:18:08.320Z,19.67
2022-11-08T07:20:35.837Z,20.37
2022-11-08T07:23:05.912Z,19.40
2022-11-08T07:25:33.302Z,20.23
2022-11-08T07:28:05.664Z,20.30
2022-11-08T07:30:33.292Z,21.93
2022-11-08T07:33:00.156Z,19.37
2022-11-08T07:35:28.237Z,20.43
2022-11-08T07:37:55.698Z,20.73
2022-11-08T07:40:22.869Z,20.13
2022-11-08T07:43:10.790Z,18.90
2022-11-08T07:45:36.570Z,18.03
2022-11-08T07:48:11.543Z,16.87
2022-11-08T07:50:42.944Z,19.77
2022-11-08T07:53:10.434Z,21.30
2022-11-08T07:55:38.536Z,21.63
2022-11-08T07:58:06.111Z,17.53
2022-11-08T08:00:36.595Z,17.10
2022-11-08T08:03:05.756Z,17.37
2022-11-08T08:05:37.750Z,14.90
2022-11-08T08:08:05.525Z,22.77
2022-11-08T08:10:33.066Z,19.07
2022-11-08T08:13:00.517Z,19.80
2022-11-08T08:15:27.629Z,16.37
2022-11-08T08:17:54.680Z,16.23
2022-11-08T08:20:21.768Z,15.97
2022-11-08T08:22:50.762Z,16.80
2022-11-08T08:25:19.215Z,20.13
2022-11-08T08:27:53.986Z,17.17
2022-11-08T08:30:21.869Z,20.63
2022-11-08T08:33:02.130Z,17.17
2022-11-08T08:35:37.066Z,21.60
2022-11-08T08:38:05.600Z,20.17
2022-11-08T08:40:33.181Z,20.27
2022-11-08T08:43:01.181Z,17.27
2022-11-08T08:45:28.627Z,12.90
2022-11-08T08:47:57.032Z,17.80
2022-11-08T08:50:24.897Z,19.30
2022-11-08T08:52:51.872Z,15.77
2022-11-08T08:55:18.952Z,13.77
2022-11-08T08:57:49.430Z,14.90
2022-11-08T09:03:05.708Z,16.13
2022-11-08T09:05:33.804Z,15.70
2022-11-08T09:08:01.768Z,18.93
2022-11-08T09:10:28.806Z,15.53
2022-11-08T09:12:56.120Z,16.17
2022-11-08T09:15:23.235Z,13.67
2022-11-08T09:17:50.172Z,14.43
2022-11-08T09:20:17.275Z,15.07
2022-11-08T09:22:44.097Z,14.53
2022-11-08T09:25:10.975Z,12.50
2022-11-08T09:27:37.966Z,15.83
2022-11-08T09:30:06.217Z,12.27
2022-11-08T09:32:59.155Z,10.20
2022-11-08T09:35:20.483Z,10.60
2022-11-08T09:37:49.742Z,12.67
2022-11-08T09:40:33.055Z,12.00
2022-11-08T09:43:15.442Z,14.13
2022-11-08T09:45:46.559Z,11.97
2022-11-08T09:48:32.068Z,13.77
2022-11-08T09:51:05.609Z,15.20
2022-11-08T09:53:38.474Z,12.60
2022-11-08T09:56:07.742Z,12.50
2022-11-08T09:58:50.637Z,15.40
2022-11-08T10:01:19.595Z,15.23
2022-11-08T10:03:54.164Z,10.07
2022-11-08T10:07:09.934Z,10.37
2022-11-08T10:09:58.119Z,10.10
2022-11-08T10:12:51.017Z,14.40
2022-11-08T10:15:29.624Z,11.60
2022-11-08T10:18:13.103Z,10.03
2022-11-08T10:21:05.186Z,7.57
2022-11-08T10:23:31.907Z,14.27
2022-11-08T10:26:10.135Z,10.93
2022-11-08T10:28:51.485Z,9.63
2022-11-08T10:31:20.957Z,8.67
2022-11-08T10:33:50.548Z,8.17
2022-11-08T10:36:26.259Z,10.13
2022-11-08T10:39:08.982Z,10.03
2022-11-08T10:41:38.795Z,13.83
2022-11-08T10:44:11.682Z,10.67
2022-11-08T10:46:48.273Z,11.00
2022-11-08T10:49:26.021Z,9.37
2022-11-08T10:51:59.186Z,11.73
2022-11-08T10:54:55.512Z,12.13
2022-11-08T10:57:28.358Z,8.20
2022-11-08T10:59:56.727Z,11.07
2022-11-08T11:02:33.206Z,8.10
2022-11-08T11:05:16.327Z,9.57
2022-11-08T11:08:04.910Z,8.03
2022-11-08T11:10:37.586Z,6.23
2022-11-08T11:13:15.136Z,9.87
2022-11-08T11:15:46.644Z,7.77
2022-11-08T11:18:30.856Z,6.83
2022-11-08T11:21:07.973Z,10.77
2022-11-08T11:23:42.353Z,7.20
2022-11-08T11:26:19.416Z,7.17
2022-11-08T11:29:04.770Z,8.90
2022-11-08T11:31:37.518Z,7.10
2022-11-08T11:34:19.743Z,6.23
2022-11-08T11:37:09.001Z,5.97
2022-11-08T11:39:51.986Z,8.93
2022-11-08T11:42:52.536Z,7.43
2022-11-08T11:45:33.279Z,5.00
2022-11-08T11:48:12.607Z,10.73
2022-11-08T11:50:41.669Z,7.70
2022-11-08T11:53:16.868Z,4.80
2022-11-08T11:55:59.109Z,5.87
2022-11-08T11:58:48.530Z,6.63
2022-11-08T12:01:45.647Z,8.97
2022-11-08T12:04:54.012Z,5.97
2022-11-08T12:07:33.128Z,8.37
2022-11-08T12:10:22.205Z,11.57
2022-11-08T12:13:13.260Z,10.60
2022-11-08T12:15:52.610Z,7.50
2022-11-08T12:18:52.608Z,6.00
2022-11-08T12:21:46.293Z,8.30
2022-11-08T12:24:41.566Z,8.37
2022-11-08T12:27:54.987Z,7.70
2022-11-08T12:30:30.628Z,10.07
2022-11-08T12:33:18.272Z,9.07
2022-11-08T12:35:59.021Z,8.10
2022-11-08T12:38:37.920Z,10.33
2022-11-08T12:41:13.556Z,8.07
2022-11-08T12:43:58.624Z,7.73
2022-11-08T12:46:26.363Z,9.40
2022-11-08T12:49:20.704Z,8.80
2022-11-08T12:51:47.923Z,8.97
2022-11-08T12:54:20.357Z,5.80
2022-11-08T12:56:49.770Z,7.27
2022-11-08T12:59:31.873Z,8.33
2022-11-08T13:01:59.343Z,7.37
2022-11-08T13:04:43.543Z,9.03
2022-11-08T13:07:45.549Z,9.63
2022-11-08T13:10:18.548Z,8.13
2022-11-08T13:13:15.278Z,6.50
2022-11-08T13:16:16.054Z,8.23
2022-11-08T13:19:14.912Z,9.77
2022-11-08T13:21:43.179Z,5.00
2022-11-08T13:24:38.397Z,7.07
2022-11-08T13:27:21.874Z,6.30
2022-11-08T13:29:49.130Z,7.93
2022-11-08T13:32:32.557Z,6.23
2022-11-08T13:35:12.526Z,9.33
2022-11-08T13:37:59.188Z,5.43
2022-11-08T13:40:32.320Z,9.10
2022-11-08T13:43:20.919Z,9.33
2022-11-08T13:45:48.683Z,9.73
2022-11-08T13:48:25.434Z,16.37
2022-11-08T13:50:56.913Z,6.97
2022-11-08T13:53:43.153Z,7.23
2022-11-08T13:56:10.107Z,5.80
2022-11-08T13:58:42.411Z,14.57
2022-11-08T14:01:18.833Z,11.70
2022-11-08T14:03:51.513Z,6.70
2022-11-08T14:06:27.208Z,6.97
2022-11-08T14:09:20.750Z,6.40
2022-11-08T14:11:56.746Z,8.23
2022-11-08T14:14:45.017Z,24.17
2022-11-08T14:17:40.918Z,6.67
2022-11-08T14:20:43.379Z,6.67
2022-11-08T14:23:20.125Z,6.90
2022-11-08T14:25:51.587Z,6.50
2022-11-08T14:28:30.597Z,7.13
2022-11-08T14:30:59.216Z,5.53
2022-11-08T14:33:28.723Z,7.83
2022-11-08T14:35:58.727Z,5.43
2022-11-08T14:38:27.393Z,7.47
2022-11-08T14:40:58.632Z,6.40
2022-11-08T14:43:37.361Z,8.73
2022-11-08T14:46:28.412Z,6.73
2022-11-08T14:48:59.530Z,11.83
2022-11-08T14:51:26.709Z,8.03
2022-11-08T14:53:55.194Z,7.17
2022-11-08T14:56:27.299Z,8.57
2022-11-08T14:58:55.873Z,7.73
2022-11-08T15:01:25.655Z,7.77
2022-11-08T15:03:58.989Z,8.77
2022-11-08T15:06:36.173Z,15.70
2022-11-08T15:09:10.723Z,10.27
2022-11-08T15:11:41.173Z,7.60
2022-11-08T15:14:11.866Z,8.00
2022-11-08T15:16:44.345Z,9.33
2022-11-08T15:19:58.750Z,6.57
2022-11-08T15:22:37.475Z,8.60
2022-11-08T15:25:35.523Z,10.10
2022-11-08T15:28:25.918Z,13.70
2022-11-08T15:31:04.537Z,9.03
2022-11-08T15:33:34.273Z,8.03
2022-11-08T15:36:25.155Z,8.97
2022-11-08T15:38:52.060Z,9.70
2022-11-08T15:41:33.654Z,8.13
2022-11-08T15:44:23.865Z,8.07
2022-11-08T15:46:52.064Z,7.77
2022-11-08T15:49:23.436Z,10.53
2022-11-08T15:51:52.256Z,9.43
2022-11-08T15:54:29.334Z,12.50
2022-11-08T15:56:56.910Z,9.63
2022-11-08T15:59:27.979Z,10.07
2022-11-08T16:02:00.601Z,11.07
2022-11-08T16:04:29.149Z,13.33
2022-11-08T16:09:38.229Z,12.90
2022-11-08T16:12:05.385Z,12.50
2022-11-08T16:14:32.431Z,12.40
2022-11-08T16:16:59.500Z,14.33
2022-11-08T16:19:29.284Z,11.20
2022-11-08T16:21:57.134Z,11.67
2022-11-08T16:24:26.554Z,9.93
2022-11-08T16:26:53.474Z,15.70
2022-11-08T16:29:23.529Z,8.53
2022-11-08T16:31:51.399Z,13.23
2022-11-08T16:34:19.468Z,13.67
2022-11-08T16:36:48.334Z,14.40
2022-11-08T16:39:27.456Z,11.17
2022-11-08T16:41:54.471Z,10.63
2022-11-08T16:44:23.178Z,12.77
2022-11-08T16:46:53.058Z,12.80
2022-11-08T16:49:24.776Z,13.47
2022-11-08T16:51:51.736Z,12.00
2022-11-08T16:54:23.941Z,11.53
2022-11-08T16:56:51.701Z,12.43
2022-11-08T16:59:18.770Z,14.97
2022-11-08T17:01:47.892Z,13.73
2022-11-08T17:04:14.755Z,14.07
2022-11-08T17:06:41.869Z,14.53
2022-11-08T17:09:10.493Z,17.33
2022-11-08T17:11:40.886Z,15.70
2022-11-08T17:14:12.256Z,16.20
2022-11-08T17:16:42.358Z,13.70
2022-11-08T17:19:09.394Z,14.80
2022-11-08T17:21:45.153Z,15.43
2022-11-08T17:24:21.648Z,20.63
2022-11-08T17:26:51.990Z,18.40
2022-11-08T17:29:25.079Z,17.30
2022-11-08T17:31:57.723Z,18.07
2022-11-08T17:34:40.190Z,18.63
2022-11-08T17:37:07.190Z,19.07
2022-11-08T17:39:34.127Z,20.23
2022-11-08T17:42:01.091Z,30.83
2022-11-08T17:44:32.194Z,20.27
2022-11-08T17:47:05.660Z,19.67
2022-11-08T17:49:32.809Z,20.00
2022-11-08T17:52:00.358Z,17.80
2022-11-08T17:54:27.421Z,20.13
2022-11-08T17:56:54.492Z,17.63
2022-11-08T17:59:21.917Z,21.63
2022-11-08T18:01:49.627Z,23.60
2022-11-08T18:04:23.050Z,17.43
2022-11-08T18:07:02.474Z,18.67
2022-11-08T18:09:41.822Z,26.83
2022-11-08T18:12:12.259Z,18.40
2022-11-08T18:14:45.276Z,18.47
2022-11-08T18:17:18.449Z,16.40
2022-11-08T18:19:50.546Z,20.40
2022-11-08T18:22:23.671Z,18.20
2022-11-08T18:24:59.851Z,21.37
2022-11-08T18:27:29.768Z,20.27
2022-11-08T18:30:00.094Z,22.57
2022-11-08T18:32:27.033Z,22.83
2022-11-08T18:34:53.993Z,22.17
2022-11-08T18:37:20.857Z,27.30
2022-11-08T18:39:47.869Z,20.63
2022-11-08T18:42:14.812Z,23.93
2022-11-08T18:44:41.951Z,24.70
2022-11-08T18:47:18.069Z,27.07
2022-11-08T18:49:45.480Z,26.63
2022-11-08T18:52:13.369Z,26.13
2022-11-08T18:54:43.374Z,29.53
2022-11-08T18:57:11.081Z,25.53
2022-11-08T18:59:38.059Z,26.23
2022-11-08T19:02:06.380Z,27.27
2022-11-08T19:04:33.384Z,27.97
2022-11-08T19:07:14.879Z,27.60
2022-11-08T19:09:45.928Z,27.77
2022-11-08T19:12:13.059Z,27.20
2022-11-08T19:14:40.281Z,30.10
2022-11-08T19:17:07.914Z,31.50
2022-11-08T19:19:37.247Z,28.23
2022-11-08T19:22:06.497Z,28.17
2022-11-08T19:24:33.718Z,24.30
2022-11-08T19:27:00.795Z,25.53
2022-11-08T19:29:28.307Z,24.20
2022-11-08T19:31:56.214Z,28.63
2022-11-08T19:34:26.879Z,28.07
2022-11-08T19:36:56.012Z,28.53
2022-11-08T19:39:24.778Z,25.87
2022-11-08T19:41:54.869Z,26.93
2022-11-08T19:44:21.955Z,29.43
2022-11-08T19:46:49.105Z,26.20
2022-11-08T19:49:25.492Z,28.10
2022-11-08T19:54:36.408Z,29.53
2022-11-08T19:57:05.132Z,27.97
2022-11-08T19:59:33.570Z,27.40
2022-11-08T20:02:00.681Z,30.27
2022-11-08T20:04:27.978Z,29.23
2022-11-08T20:06:55.562Z,25.63
2022-11-08T20:09:35.829Z,31.13
2022-11-08T20:14:58.482Z,27.03
2022-11-08T20:17:37.975Z,26.87
2022-11-08T20:20:05.934Z,27.10
2022-11-08T20:39:57.582Z,30.47
2022-11-08T20:42:35.982Z,27.73
2022-11-08T20:45:03.227Z,25.37
2022-11-08T20:47:30.949Z,27.87
2022-11-08T20:49:58.581Z,30.20
2022-11-08T20:52:26.999Z,28.50
2022-11-08T20:54:54.522Z,29.00
2022-11-08T21:03:19.253Z,27.00
2022-11-08T21:05:59.626Z,26.20
2022-11-08T21:11:18.894Z,28.60
2022-11-08T21:13:46.750Z,28.10
2022-11-08T21:16:29.412Z,26.83
2022-11-08T21:18:58.475Z,27.63
2022-11-08T21:21:25.895Z,26.87
2022-11-08T21:23:54.472Z,26.03
2022-11-08T21:26:22.604Z,25.70
2022-11-08T21:28:49.707Z,26.80
2022-11-08T21:31:17.170Z,26.87
2022-11-08T21:33:50.750Z,26.70
2022-11-08T21:36:18.564Z,26.47
2022-11-08T21:38:51.402Z,29.40
2022-11-08T21:41:18.813Z,28.77
2022-11-08T21:43:47.614Z,30.87
2022-11-08T21:46:15.532Z,29.80
2022-11-08T21:48:45.732Z,26.63
2022-11-08T21:51:13.456Z,27.27
2022-11-08T21:53:53.759Z,29.50
2022-11-08T21:56:26.560Z,27.83
2022-11-08T21:58:56.756Z,32.20
2022-11-08T22:01:28.897Z,31.03
2022-11-08T22:03:58.611Z,25.27
2022-11-08T22:06:26.077Z,29.83
2022-11-08T22:08:53.769Z,30.47
2022-11-08T22:11:21.227Z,34.00
2022-11-08T22:16:43.923Z,33.37
2022-11-08T22:22:44.817Z,30.20
2022-11-08T22:31:45.991Z,30.27
2022-11-08T22:37:39.703Z,28.27
2022-11-08T22:41:06.181Z,30.13
2022-11-08T22:43:34.955Z,28.20
2022-11-08T22:46:02.216Z,29.13
2022-11-08T22:48:29.374Z,28.93
2022-11-08T22:50:56.365Z,30.23
2022-11-08T22:53:23.671Z,28.07
2022-11-08T22:55:50.735Z,29.00
2022-11-08T22:58:17.922Z,28.80
2022-11-08T23:00:44.886Z,31.53
2022-11-08T23:03:12.274Z,31.80
2022-11-08T23:05:39.471Z,31.70
2022-11-08T23:08:06.771Z,32.13
2022-11-08T23:10:59.471Z,33.17
2022-11-08T23:13:45.372Z,27.67
2022-11-08T23:16:30.860Z,29.70
2022-11-08T23:19:17.363Z,30.90
2022-11-08T23:22:02.710Z,38.47
2022-11-08T23:24:32.561Z,29.80
2022-11-08T23:27:19.719Z,32.53
2022-11-08T23:30:05.921Z,30.93
2022-11-08T23:32:33.664Z,33.47
2022-11-08T23:35:00.817Z,28.17
2022-11-08T23:37:27.933Z,31.30
2022-11-08T23:40:13.452Z,39.00
2022-11-08T23:42:59.443Z,31.93
2022-11-08T23:45:26.504Z,33.83
2022-11-08T23:47:53.623Z,39.90
2022-11-08T23:50:20.881Z,34.83
2022-11-08T23:52:47.826Z,29.67
2022-11-08T23:55:14.840Z,30.30
2022-11-08T23:57:42.028Z,34.10
